Time;durP1;ratioP1;P1;durP2;ratioP2;P2;SDS_P1;SDS_P2;PMS_P1;PMS_P2;Temp;Humidity;BMP_temperature;BMP_pressure;BME280_temperature;BME280_humidity;BME280_pressure;Samples;Min_cycle;Max_cycle;Signal;HPM_P1;HPM_P2
2024/01/25 00:00:02;;;;;;;14.17;8.43;;;;;;;1.76;83.82;97180.09;5087173;28;20220;-59
2024/01/25 00:02:32;;;;;;;13.83;8.33;;;;;;;1.74;84.36;97168.19;5087151;28;20321;-60
2024/01/25 00:04:59;;;;;;;14.57;8.77;;;;;;;1.77;84.08;97186.91;5086857;28;20196;-60
2024/01/25 00:07:27;;;;;;;13.57;7.70;;;;;;;1.79;83.37;97199.66;5087693;28;20197;-60
2024/01/25 00:09:54;;;;;;;13.67;8.00;;;;;;;1.77;84.01;97173.28;5086286;28;20653;-60
2024/01/25 00:12:22;;;;;;;12.20;8.10;;;;;;;1.85;83.06;97197.88;5087199;28;20208;-59
2024/01/25 00:14:49;;;;;;;14.30;8.43;;;;;;;1.70;83.73;97157.19;5086464;28;20196;-60
2024/01/25 00:17:16;;;;;;;16.00;8.87;;;;;;;1.81;82.86;97169.84;5087024;28;20641;-61
2024/01/25 00:19:43;;;;;;;13.73;9.33;;;;;;;1.89;83.42;97175.72;5086480;28;20250;-60
2024/01/25 00:22:10;;;;;;;13.80;9.50;;;;;;;1.91;83.16;97166.34;5086655;28;20211;-60
2024/01/25 00:24:37;;;;;;;14.57;8.73;;;;;;;1.98;83.67;97183.28;5086902;28;20238;-60
2024/01/25 00:27:05;;;;;;;15.53;10.40;;;;;;;2.10;82.36;97147.41;5086706;28;20223;-61
2024/01/25 00:29:34;;;;;;;13.27;9.03;;;;;;;1.94;81.83;97110.16;5087272;28;20283;-60
2024/01/25 00:32:01;;;;;;;15.10;9.57;;;;;;;2.34;81.46;97152.22;5086732;28;20247;-60
2024/01/25 00:34:28;;;;;;;16.33;9.73;;;;;;;2.36;81.45;97156.47;5086892;28;20231;-59
2024/01/25 00:36:56;;;;;;;16.10;11.13;;;;;;;2.48;80.84;97129.91;5051621;28;20245;-60
2024/01/25 00:39:23;;;;;;;15.27;10.17;;;;;;;2.45;80.54;97132.50;5086591;28;20265;-61
2024/01/25 00:41:51;;;;;;;15.90;10.43;;;;;;;2.28;81.08;97122.50;5086925;28;20195;-61
2024/01/25 00:44:19;;;;;;;14.93;10.63;;;;;;;2.45;80.99;97115.44;5085934;28;20614;-60
2024/01/25 00:46:50;;;;;;;14.27;9.70;;;;;;;2.54;80.76;97106.81;5086746;28;20197;-60
2024/01/25 00:49:18;;;;;;;14.73;9.97;;;;;;;2.57;80.28;97119.56;5085768;28;20196;-60
2024/01/25 00:51:47;;;;;;;18.37;11.17;;;;;;;2.34;81.33;97103.69;5086346;28;20228;-60
2024/01/25 00:54:17;;;;;;;17.43;10.20;;;;;;;2.30;81.63;97140.34;5086200;28;20184;-60
2024/01/25 00:56:44;;;;;;;17.57;10.80;;;;;;;2.24;81.46;97118.28;5086044;28;20180;-59
2024/01/25 00:59:11;;;;;;;15.57;10.43;;;;;;;2.19;82.46;97137.06;5086222;28;20315;-59
2024/01/25 01:01:40;;;;;;;14.90;9.80;;;;;;;2.15;82.90;97117.53;5085649;28;20198;-59
2024/01/25 01:04:08;;;;;;;16.30;11.30;;;;;;;2.21;81.43;97138.75;5086720;28;20204;-59
2024/01/25 01:06:35;;;;;;;15.63;10.40;;;;;;;1.96;83.35;97111.78;5085214;28;20246;-59
2024/01/25 01:09:03;;;;;;;16.27;10.17;;;;;;;1.83;84.18;97097.50;5086069;28;20215;-59
2024/01/25 01:11:30;;;;;;;16.80;11.20;;;;;;;2.05;83.87;97095.53;5068111;28;20695;-60
2024/01/25 01:13:57;;;;;;;25.47;13.17;;;;;;;1.96;83.70;97128.84;5085684;28;20303;-60
2024/01/25 01:16:24;;;;;;;18.93;10.83;;;;;;;1.44;84.98;97057.06;5086379;28;20227;-60
2024/01/25 01:18:51;;;;;;;18.43;11.67;;;;;;;1.98;83.72;97124.56;5085555;28;20239;-62
2024/01/25 01:21:21;;;;;;;17.20;11.00;;;;;;;2.10;83.19;97132.91;5086373;28;20196;-59
2024/01/25 01:23:48;;;;;;;17.23;11.03;;;;;;;2.09;84.26;97125.28;5085450;28;20738;-59
2024/01/25 01:26:15;;;;;;;19.63;10.87;;;;;;;2.07;83.09;97101.47;5086072;28;20249;-60
2024/01/25 01:28:42;;;;;;;17.37;11.23;;;;;;;2.12;83.66;97094.59;5085456;28;20200;-63
2024/01/25 01:31:10;;;;;;;16.47;11.50;;;;;;;2.10;83.24;97070.78;5085247;28;20193;-63
2024/01/25 01:33:37;;;;;;;19.80;11.83;;;;;;;1.79;84.40;97082.22;5067877;28;20656;-61
2024/01/25 01:36:05;;;;;;;18.47;12.17;;;;;;;2.00;84.61;97080.25;5085316;28;20245;-63
2024/01/25 01:38:32;;;;;;;20.63;11.70;;;;;;;1.94;84.31;97062.44;5086102;28;20256;-63
2024/01/25 01:40:59;;;;;;;20.43;12.67;;;;;;;1.96;84.49;97072.66;5085043;28;20200;-63
2024/01/25 01:43:26;;;;;;;21.53;13.67;;;;;;;2.04;84.34;97053.00;5085701;28;20201;-61
2024/01/25 01:46:02;;;;;;;19.20;12.83;;;;;;;2.19;83.44;97058.75;5085450;28;20211;-60
2024/01/25 01:48:30;;;;;;;17.87;11.97;;;;;;;2.01;83.15;97058.13;5085315;28;20253;-59
2024/01/25 01:50:58;;;;;;;22.13;12.17;;;;;;;2.01;84.03;97036.00;5085920;28;20261;-59
2024/01/25 01:53:26;;;;;;;18.07;12.77;;;;;;;1.92;84.79;97022.47;5084764;28;20185;-60
2024/01/25 01:55:54;;;;;;;19.90;12.33;;;;;;;2.05;84.62;97052.97;5067980;28;20212;-60
2024/01/25 01:58:23;;;;;;;20.30;13.87;;;;;;;2.03;84.00;97075.13;5085330;28;20204;-59
2024/01/25 02:00:53;;;;;;;21.23;12.53;;;;;;;1.90;84.81;97062.50;5085513;28;20258;-60
2024/01/25 02:03:20;;;;;;;22.20;13.50;;;;;;;1.80;85.15;97043.91;5085269;28;20620;-59
2024/01/25 02:05:47;;;;;;;22.33;13.47;;;;;;;1.89;84.83;97038.69;5085312;28;20292;-60
2024/01/25 02:08:14;;;;;;;19.10;13.10;;;;;;;1.71;85.25;97027.88;5067513;28;20188;-59
2024/01/25 02:10:43;;;;;;;18.47;13.47;;;;;;;1.80;84.92;97010.72;5084658;28;20198;-60
2024/01/25 02:13:10;;;;;;;22.60;14.17;;;;;;;1.72;85.70;97006.56;5067616;28;20201;-59
2024/01/25 02:15:37;;;;;;;20.60;13.13;;;;;;;1.97;84.89;97023.28;5085240;28;20270;-58
2024/01/25 02:18:05;;;;;;;21.10;13.53;;;;;;;2.07;84.82;97018.03;5087054;28;20299;-59
2024/01/25 02:20:32;;;;;;;21.87;13.03;;;;;;;1.93;84.36;97026.72;5088829;28;20224;-60
2024/01/25 02:23:00;;;;;;;22.80;14.27;;;;;;;1.92;84.39;97019.94;5088585;28;20228;-60
2024/01/25 02:25:27;;;;;;;20.00;13.67;;;;;;;2.00;84.44;97021.53;5089286;28;20214;-59
2024/01/25 02:27:54;;;;;;;19.47;12.80;;;;;;;1.77;85.85;97004.81;5088603;28;20188;-61
2024/01/25 02:30:21;;;;;;;22.17;13.30;;;;;;;1.76;85.63;96980.13;5089380;28;20248;-60
2024/01/25 02:32:48;;;;;;;36.53;21.07;;;;;;;2.03;85.36;96992.56;5088270;28;20215;-60
2024/01/25 02:35:15;;;;;;;16.30;11.63;;;;;;;2.07;83.83;96979.72;5088872;28;20612;-60
2024/01/25 02:37:43;;;;;;;23.07;12.47;;;;;;;2.06;84.00;96972.09;5088382;28;20281;-61
2024/01/25 02:40:10;;;;;;;16.87;11.70;;;;;;;2.03;84.79;96969.56;5088450;28;20243;-59
2024/01/25 02:42:37;;;;;;;18.00;12.70;;;;;;;2.03;83.50;96969.56;5088719;28;20292;-60
2024/01/25 02:45:05;;;;;;;20.20;13.23;;;;;;;2.08;84.18;96995.91;5088439;28;20246;-60
2024/01/25 02:47:32;;;;;;;20.07;13.73;;;;;;;2.22;84.55;96968.47;5088914;28;20700;-59
2024/01/25 02:49:59;;;;;;;21.07;14.10;;;;;;;2.36;83.59;96981.88;5088128;28;20230;-61
2024/01/25 02:52:26;;;;;;;20.70;14.23;;;;;;;2.31;83.00;96952.97;5088996;28;20200;-61
2024/01/25 02:54:53;;;;;;;17.57;12.93;;;;;;;2.08;83.80;96944.84;5088423;28;20272;-60
2024/01/25 02:57:20;;;;;;;22.80;13.37;;;;;;;2.15;84.21;96962.59;5088919;28;20735;-60
2024/01/25 02:59:47;;;;;;;20.47;12.33;;;;;;;1.89;84.05;96966.38;5088736;28;20691;-59
2024/01/25 03:02:16;;;;;;;21.03;13.50;;;;;;;1.96;84.90;96965.44;5069874;28;20192;-59
2024/01/25 03:04:43;;;;;;;21.77;13.83;;;;;;;2.01;84.92;96973.84;5088872;28;20551;-59
2024/01/25 03:07:11;;;;;;;22.33;14.70;;;;;;;2.01;85.11;96949.16;5069910;28;20252;-59
2024/01/25 03:09:38;;;;;;;21.30;13.80;;;;;;;2.03;85.12;96974.69;5088933;28;20559;-60
2024/01/25 03:12:05;;;;;;;20.63;12.97;;;;;;;2.09;84.64;96966.94;5088093;28;20226;-60
2024/01/25 03:14:32;;;;;;;20.60;13.40;;;;;;;1.98;85.00;96969.63;5088270;28;20280;-60
2024/01/25 03:16:59;;;;;;;18.83;12.77;;;;;;;1.99;84.51;96960.28;5088345;28;20720;-58
2024/01/25 03:19:27;;;;;;;20.30;12.87;;;;;;;2.05;85.88;96965.28;5087666;28;20330;-59
2024/01/25 03:21:54;;;;;;;21.40;13.90;;;;;;;2.13;84.51;96969.44;5070282;28;20290;-61
2024/01/25 03:24:22;;;;;;;22.77;14.50;;;;;;;2.10;84.99;96961.78;5087215;28;20305;-61
2024/01/25 03:26:49;;;;;;;24.13;14.30;;;;;;;2.15;85.40;96952.38;5088383;28;20249;-60
2024/01/25 03:29:17;;;;;;;19.23;13.27;;;;;;;2.11;84.93;96940.50;5087178;28;20189;-59
2024/01/25 03:31:44;;;;;;;22.00;14.47;;;;;;;2.06;85.65;96951.66;5069474;28;20250;-59
2024/01/25 03:34:11;;;;;;;21.17;13.50;;;;;;;2.09;86.54;96923.50;5087522;28;20212;-61
2024/01/25 03:36:41;;;;;;;21.43;13.47;;;;;;;2.17;86.15;96934.47;5087228;28;20749;-59
2024/01/25 03:39:09;;;;;;;20.77;13.00;;;;;;;2.19;85.43;96908.03;5087859;28;20224;-60
2024/01/25 03:41:36;;;;;;;16.83;11.27;;;;;;;2.39;86.24;96946.88;5086932;28;20199;-59
2024/01/25 03:44:03;;;;;;;15.93;10.73;;;;;;;2.55;85.57;96929.63;5088129;28;20677;-59
2024/01/25 03:46:30;;;;;;;16.23;10.87;;;;;;;2.90;84.61;96946.91;5087204;28;20394;-59
2024/01/25 03:48:57;;;;;;;16.63;10.60;;;;;;;3.13;84.08;96937.94;5087517;28;20194;-59
2024/01/25 03:51:26;;;;;;;21.97;13.43;;;;;;;3.36;82.93;96950.31;5087284;28;20200;-59
2024/01/25 03:53:55;;;;;;;12.27;8.50;;;;;;;4.04;81.88;96954.88;5086988;28;20716;-60
2024/01/25 03:56:22;;;;;;;10.03;7.03;;;;;;;4.28;80.50;96940.69;5087587;28;20243;-59
2024/01/25 03:58:50;;;;;;;11.53;7.23;;;;;;;4.52;79.85;96950.38;5086882;28;20675;-59
2024/01/25 04:01:17;;;;;;;12.13;9.07;;;;;;;4.39;79.31;96946.38;5069509;28;20501;-62
2024/01/25 04:03:44;;;;;;;9.77;7.33;;;;;;;4.51;79.60;96956.38;5086578;28;20389;-59
2024/01/25 04:06:12;;;;;;;10.20;6.87;;;;;;;4.65;79.84;96945.78;5068981;28;20193;-62
2024/01/25 04:08:39;;;;;;;9.27;5.73;;;;;;;5.03;79.74;96949.97;5087276;28;20297;-61
2024/01/25 04:11:07;;;;;;;16.83;11.67;;;;;;;4.88;78.71;96972.56;5086934;28;20229;-61
2024/01/25 04:13:35;;;;;;;11.27;7.60;;;;;;;4.90;79.56;96957.97;5087485;28;20202;-60
2024/01/25 04:16:03;;;;;;;8.77;6.57;;;;;;;5.00;79.58;96962.88;5086105;28;20670;-59
2024/01/25 04:18:30;;;;;;;6.73;4.93;;;;;;;5.34;77.91;96950.84;5085489;28;20210;-59
2024/01/25 04:20:57;;;;;;;6.70;5.03;;;;;;;5.41;76.97;96947.25;5086064;28;20745;-60
2024/01/25 04:23:24;;;;;;;3.50;2.80;;;;;;;6.19;76.39;96963.00;5086482;28;20224;-60
2024/01/25 04:25:51;;;;;;;6.67;4.60;;;;;;;6.98;70.66;96948.47;5086512;28;20206;-63
2024/01/25 04:28:18;;;;;;;8.60;5.33;;;;;;;6.57;71.45;96960.06;5068209;28;20703;-60
2024/01/25 04:30:45;;;;;;;4.47;3.10;;;;;;;6.69;72.23;96933.13;5086645;28;20301;-63
2024/01/25 04:33:13;;;;;;;4.80;3.13;;;;;;;6.88;72.12;96949.66;5086282;28;20206;-63
2024/01/25 04:35:40;;;;;;;4.07;2.40;;;;;;;7.24;71.37;96948.44;5086649;28;20207;-61
2024/01/25 04:38:07;;;;;;;6.17;2.63;;;;;;;7.30;69.39;96926.75;5067753;28;20583;-62
2024/01/25 04:40:34;;;;;;;4.77;3.00;;;;;;;7.67;68.55;96952.91;5066848;28;20228;-62
2024/01/25 04:43:01;;;;;;;10.73;6.90;;;;;;;7.63;68.66;96935.88;5086243;28;20382;-61
2024/01/25 04:45:28;;;;;;;3.20;2.60;;;;;;;7.86;69.05;96953.94;5086361;28;20724;-63
2024/01/25 04:47:56;;;;;;;3.50;2.87;;;;;;;7.97;68.06;96946.66;5086246;28;20714;-61
2024/01/25 04:50:23;;;;;;;2.57;1.60;;;;;;;8.06;68.59;96945.47;5085868;28;20192;-60
2024/01/25 04:52:50;;;;;;;2.97;1.80;;;;;;;7.93;67.98;96934.75;5086599;28;20212;-60
2024/01/25 04:55:19;;;;;;;4.17;1.80;;;;;;;8.00;68.21;96931.06;5085645;28;20295;-60
2024/01/25 04:57:47;;;;;;;3.17;1.40;;;;;;;8.18;68.14;96927.78;5067914;28;20200;-59
2024/01/25 05:00:16;;;;;;;2.20;1.43;;;;;;;8.23;67.25;96918.16;5085571;28;20221;-64
2024/01/25 05:02:43;;;;;;;1.90;1.47;;;;;;;8.25;67.44;96941.34;5084355;28;20194;-62
2024/01/25 05:05:10;;;;;;;2.40;1.50;;;;;;;8.20;67.06;96930.34;5085415;28;20194;-61
2024/01/25 05:07:37;;;;;;;2.77;1.77;;;;;;;8.14;67.79;96939.13;5066961;28;20337;-60
2024/01/25 05:10:05;;;;;;;4.33;1.70;;;;;;;8.24;67.44;96937.88;5086288;28;20295;-60
2024/01/25 05:12:32;;;;;;;2.03;1.47;;;;;;;8.58;66.23;96949.50;5085533;28;20504;-59
2024/01/25 05:15:00;;;;;;;3.43;2.63;;;;;;;8.70;65.42;96949.00;5085870;28;20203;-59
2024/01/25 05:17:28;;;;;;;1.73;1.40;;;;;;;8.55;65.38;96900.59;5085709;28;20188;-59
2024/01/25 05:19:55;;;;;;;2.53;1.33;;;;;;;8.79;65.86;96941.75;5085741;28;20335;-59
2024/01/25 05:22:23;;;;;;;2.13;1.40;;;;;;;8.89;65.52;96934.47;5085911;28;20254;-61
2024/01/25 05:24:50;;;;;;;1.33;1.10;;;;;;;9.00;65.37;96942.63;5085221;28;20363;-60
2024/01/25 05:27:18;;;;;;;2.40;1.30;;;;;;;8.94;65.52;96922.22;5067867;28;20691;-60
2024/01/25 05:29:45;;;;;;;3.70;1.50;;;;;;;8.99;65.65;96928.88;5085028;28;20284;-60
2024/01/25 05:32:12;;;;;;;2.33;1.30;;;;;;;9.07;65.50;96919.97;5067708;28;20241;-61
2024/01/25 05:34:39;;;;;;;2.87;1.37;;;;;;;9.01;65.05;96908.13;5085396;28;20318;-61
2024/01/25 05:37:06;;;;;;;2.23;1.20;;;;;;;8.79;63.08;96837.63;5085460;28;20196;-60
2024/01/25 05:39:36;;;;;;;2.67;1.30;;;;;;;9.14;64.34;96883.47;5085271;28;20704;-61
2024/01/25 05:42:12;;;;;;;2.43;1.47;;;;;;;9.00;65.50;96904.69;5052151;28;20205;-62
2024/01/25 05:44:47;;;;;;;1.87;1.23;;;;;;;9.05;65.08;96878.69;5086159;28;20227;-63
2024/01/25 05:47:27;;;;;;;3.67;1.70;;;;;;;8.76;65.04;96842.91;5084895;28;20192;-61
2024/01/25 05:49:55;;;;;;;2.73;1.30;;;;;;;8.96;65.06;96879.09;5084968;28;20192;-63
2024/01/25 05:52:23;;;;;;;3.50;1.33;;;;;;;9.02;64.40;96884.00;5068945;28;20311;-61
2024/01/25 05:54:51;;;;;;;4.03;1.33;;;;;;;9.11;64.07;96870.69;5089511;28;20603;-60
2024/01/25 05:57:19;;;;;;;1.63;1.30;;;;;;;9.14;63.52;96857.66;5089404;28;20224;-60
2024/01/25 05:59:47;;;;;;;3.37;1.47;;;;;;;9.18;64.10;96854.03;5088505;28;20217;-61
2024/01/25 06:02:14;;;;;;;1.77;1.30;;;;;;;9.17;63.86;96867.84;5089819;28;20699;-59
2024/01/25 06:04:41;;;;;;;2.57;1.33;;;;;;;9.09;63.79;96863.94;5088369;28;20203;-61
2024/01/25 06:07:08;;;;;;;2.10;1.30;;;;;;;9.07;64.00;96863.16;5090357;28;20200;-63
2024/01/25 06:09:36;;;;;;;3.03;1.70;;;;;;;8.93;63.78;96886.97;5089165;28;20562;-61
2024/01/25 06:12:04;;;;;;;3.03;1.40;;;;;;;9.05;63.42;96924.38;5089371;28;20196;-61
2024/01/25 06:14:31;;;;;;;3.37;1.30;;;;;;;9.21;60.98;96928.78;5088846;28;20321;-62
2024/01/25 06:16:58;;;;;;;2.03;1.43;;;;;;;9.38;59.03;96933.25;5088639;28;20235;-61
2024/01/25 06:19:25;;;;;;;2.63;1.30;;;;;;;9.40;59.23;96942.63;5089105;28;20204;-62
2024/01/25 06:21:53;;;;;;;3.67;2.60;;;;;;;9.33;60.47;96930.03;5088532;28;20581;-65
2024/01/25 06:24:20;;;;;;;3.37;1.80;;;;;;;9.29;60.24;96939.69;5089241;28;20220;-63
2024/01/25 06:26:47;;;;;;;4.70;2.00;;;;;;;9.15;60.79;96936.00;5088612;28;20280;-64
2024/01/25 06:29:14;;;;;;;4.90;2.00;;;;;;;9.26;60.28;96938.94;5088930;28;20224;-62
2024/01/25 06:31:45;;;;;;;5.90;1.40;;;;;;;9.34;58.60;96958.41;5070232;28;20192;-63
2024/01/25 06:34:12;;;;;;;2.43;1.40;;;;;;;9.40;59.58;96947.78;5088749;28;20244;-62
2024/01/25 06:36:40;;;;;;;2.77;1.87;;;;;;;9.32;57.60;96902.50;5089046;28;20708;-62
2024/01/25 06:39:08;;;;;;;3.13;1.80;;;;;;;9.65;57.14;96957.91;5088379;28;20604;-60
2024/01/25 06:41:35;;;;;;;2.30;1.80;;;;;;;9.63;55.64;96945.06;5088871;28;20279;-61
2024/01/25 06:44:02;;;;;;;2.67;1.80;;;;;;;9.74;56.13;96949.78;5088011;28;20189;-62
2024/01/25 06:46:29;;;;;;;2.97;1.60;;;;;;;9.76;55.42;96935.88;5088358;28;20283;-62
2024/01/25 06:48:57;;;;;;;3.07;2.17;;;;;;;9.44;54.61;96902.81;5070132;28;20296;-63
2024/01/25 06:51:24;;;;;;;3.30;1.30;;;;;;;9.89;55.26;96950.84;5087977;28;20691;-60
2024/01/25 06:53:51;;;;;;;3.87;1.50;;;;;;;9.87;54.28;96932.78;5070067;28;20211;-61
2024/01/25 06:56:18;;;;;;;4.90;1.57;;;;;;;10.00;53.04;96977.91;5069575;28;20193;-60
2024/01/25 06:58:45;;;;;;;5.40;1.90;;;;;;;10.07;52.74;96950.88;5070535;28;20201;-61
2024/01/25 07:01:13;;;;;;;4.63;2.57;;;;;;;10.03;53.13;96944.16;5087614;28;20719;-62
2024/01/25 07:03:41;;;;;;;5.33;2.50;;;;;;;10.05;52.91;96959.59;5087153;28;20220;-62
2024/01/25 07:06:09;;;;;;;6.37;2.53;;;;;;;10.03;52.99;96970.03;5087295;28;20563;-61
2024/01/25 07:08:36;;;;;;;4.43;1.90;;;;;;;9.99;52.94;96944.34;5087628;28;20295;-62
2024/01/25 07:11:03;;;;;;;2.47;1.47;;;;;;;10.12;51.67;96964.44;5069726;28;20711;-64
2024/01/25 07:13:30;;;;;;;2.70;1.70;;;;;;;10.06;52.19;96963.84;5087207;28;20258;-64
2024/01/25 07:15:57;;;;;;;2.60;1.77;;;;;;;9.95;52.45;96948.00;5087897;28;20217;-64
2024/01/25 07:18:25;;;;;;;4.53;1.70;;;;;;;10.08;52.94;96955.13;5087417;28;20202;-61
2024/01/25 07:20:52;;;;;;;2.70;1.50;;;;;;;10.05;52.77;96933.72;5087983;28;20229;-63
2024/01/25 07:23:22;;;;;;;2.67;1.30;;;;;;;9.92;52.11;96911.91;5086940;28;20236;-61
2024/01/25 07:25:49;;;;;;;4.10;2.10;;;;;;;10.16;52.64;96945.28;5087349;28;20235;-61
2024/01/25 07:28:19;;;;;;;4.87;1.57;;;;;;;10.04;53.49;96916.50;5068880;28;20197;-62
2024/01/25 07:30:49;;;;;;;4.63;1.70;;;;;;;10.06;51.64;96922.44;5086895;28;20550;-61
2024/01/25 07:33:17;;;;;;;3.97;1.60;;;;;;;10.32;50.63;96950.63;5087520;28;20232;-62
2024/01/25 07:35:48;;;;;;;4.37;1.43;;;;;;;10.14;50.47;96912.66;5086354;28;20599;-62
2024/01/25 07:38:15;;;;;;;4.13;1.40;;;;;;;10.36;50.50;96963.34;5087085;28;20201;-64
2024/01/25 07:40:43;;;;;;;3.73;1.70;;;;;;;10.36;51.07;96958.19;5086760;28;20218;-62
2024/01/25 07:43:10;;;;;;;5.10;2.20;;;;;;;10.29;51.73;96948.16;5086517;28;20218;-61
2024/01/25 07:45:38;;;;;;;5.70;2.00;;;;;;;10.42;52.51;96977.75;5086929;28;20312;-63
2024/01/25 07:48:06;;;;;;;5.07;2.20;;;;;;;10.38;51.74;96966.72;5086539;28;20195;-64
2024/01/25 07:50:41;;;;;;;5.17;1.90;;;;;;;10.50;51.70;96971.31;5087334;28;20190;-64
2024/01/25 07:53:09;;;;;;;5.80;2.17;;;;;;;10.55;52.00;96971.94;5086136;28;20240;-62
2024/01/25 07:55:36;;;;;;;4.87;1.80;;;;;;;10.59;50.72;96972.63;5068420;28;20292;-63
2024/01/25 07:58:03;;;;;;;2.30;1.60;;;;;;;10.59;48.95;96975.22;5086450;28;20197;-64
2024/01/25 08:00:30;;;;;;;7.57;2.00;;;;;;;10.72;48.71;96971.13;5086008;28;21012;-65
2024/01/25 08:02:58;;;;;;;4.17;2.33;;;;;;;10.81;48.99;96962.09;5086061;28;20315;-62
2024/01/25 08:05:25;;;;;;;2.77;1.87;;;;;;;10.87;49.00;96969.56;5085890;28;20230;-63
2024/01/25 08:08:07;;;;;;;3.27;1.60;;;;;;;10.79;48.59;96961.31;5086868;28;20201;-63
2024/01/25 08:10:35;;;;;;;3.33;1.67;;;;;;;10.61;50.05;96944.94;5085535;28;20201;-61
2024/01/25 08:13:02;;;;;;;4.83;2.00;;;;;;;10.75;51.17;96968.41;5067942;28;20612;-63
2024/01/25 08:15:34;;;;;;;7.60;2.67;;;;;;;10.61;50.80;96931.97;5084634;28;20696;-61
2024/01/25 08:18:02;;;;;;;6.73;3.03;;;;;;;10.79;50.76;96967.34;5085696;28;20200;-61
2024/01/25 08:20:30;;;;;;;4.23;1.87;;;;;;;10.99;50.43;96968.97;5086083;28;20319;-64
2024/01/25 08:22:57;;;;;;;3.93;2.93;;;;;;;11.04;50.88;96967.84;5085341;28;20575;-62
2024/01/25 08:25:24;;;;;;;5.70;2.30;;;;;;;11.11;49.07;96974.41;5067643;28;20682;-65
2024/01/25 08:27:52;;;;;;;6.67;2.07;;;;;;;11.01;49.08;96962.81;5085918;28;20191;-66
2024/01/25 08:30:19;;;;;;;7.47;2.10;;;;;;;11.02;48.64;96967.09;5086700;28;20288;-62
2024/01/25 08:32:46;;;;;;;5.23;2.00;;;;;;;11.16;48.61;96979.38;5086423;28;20276;-64
2024/01/25 08:35:13;;;;;;;5.87;1.40;;;;;;;11.25;45.59;96990.09;5085922;28;20181;-63
2024/01/25 08:37:41;;;;;;;8.20;1.90;;;;;;;11.21;45.09;96996.34;5051825;28;20194;-63
2024/01/25 08:40:10;;;;;;;6.93;1.53;;;;;;;11.04;44.19;96975.63;5085539;28;20200;-63
2024/01/25 08:42:37;;;;;;;7.40;1.67;;;;;;;10.96;45.01;96976.91;5068049;28;20277;-60
2024/01/25 08:45:07;;;;;;;12.23;1.60;;;;;;;10.87;44.93;96962.63;5085821;28;20209;-62
2024/01/25 08:47:35;;;;;;;4.13;1.83;;;;;;;11.09;44.96;96984.00;5067824;28;20220;-63
2024/01/25 08:50:03;;;;;;;3.67;1.53;;;;;;;11.18;45.05;96985.31;5085950;28;20661;-60
2024/01/25 08:52:31;;;;;;;3.83;1.57;;;;;;;11.07;42.58;96975.47;5067680;28;20710;-63
2024/01/25 08:54:58;;;;;;;4.63;1.50;;;;;;;11.16;42.75;96987.97;5086073;28;20220;-62
2024/01/25 08:57:26;;;;;;;1.97;1.10;;;;;;;11.14;42.48;96989.81;5066951;28;20638;-61
2024/01/25 08:59:54;;;;;;;4.83;2.23;;;;;;;11.06;43.55;96978.13;5086527;28;20303;-62
2024/01/25 09:02:26;;;;;;;5.23;1.60;;;;;;;11.13;43.32;96993.31;5085132;28;20223;-63
2024/01/25 09:04:53;;;;;;;3.90;1.77;;;;;;;11.26;42.33;97014.28;5085859;28;20193;-62
2024/01/25 09:07:22;;;;;;;9.20;2.83;;;;;;;11.30;43.40;97000.25;5067718;28;20285;-61
2024/01/25 09:09:49;;;;;;;6.20;1.43;;;;;;;11.39;42.53;97002.41;5067090;28;20200;-62
2024/01/25 09:12:16;;;;;;;3.37;1.30;;;;;;;11.32;42.80;97004.47;5085745;28;20824;-62
2024/01/25 09:14:44;;;;;;;2.70;1.40;;;;;;;11.24;43.23;97001.41;5084928;28;20247;-65
2024/01/25 09:17:11;;;;;;;4.20;1.30;;;;;;;11.20;42.93;97009.41;5085820;28;20299;-62
2024/01/25 09:19:38;;;;;;;4.67;1.63;;;;;;;11.19;42.32;96987.00;5084715;28;20190;-61
2024/01/25 09:22:07;;;;;;;5.20;2.30;;;;;;;11.04;42.49;96979.97;5085317;28;20317;-62
2024/01/25 09:24:36;;;;;;;4.30;2.10;;;;;;;11.28;42.23;97013.31;5066822;28;20699;-60
2024/01/25 09:27:03;;;;;;;4.53;2.10;;;;;;;11.24;41.92;97011.78;5084508;28;20469;-62
2024/01/25 09:29:31;;;;;;;4.50;2.27;;;;;;;11.28;42.29;96999.50;5085161;28;20215;-61
2024/01/25 09:31:59;;;;;;;7.13;2.10;;;;;;;11.08;42.12;96990.13;5084639;28;20620;-63
2024/01/25 09:34:26;;;;;;;5.37;2.00;;;;;;;11.09;42.89;96968.44;5067472;28;20189;-67
2024/01/25 09:36:53;;;;;;;5.27;1.90;;;;;;;11.23;42.84;96999.72;5084924;28;20671;-64
2024/01/25 09:39:21;;;;;;;7.53;1.90;;;;;;;11.25;43.26;96997.88;5085331;28;20217;-60
2024/01/25 09:41:48;;;;;;;5.20;2.07;;;;;;;11.40;42.97;97004.91;5084896;28;20230;-61
2024/01/25 09:44:17;;;;;;;6.20;2.23;;;;;;;11.37;42.68;97018.03;5066748;28;20207;-62
2024/01/25 09:46:48;;;;;;;7.37;2.77;;;;;;;11.32;42.53;97004.47;5085421;28;20291;-63
2024/01/25 09:49:15;;;;;;;3.80;1.90;;;;;;;11.31;43.40;97005.34;5084933;28;20244;-63
2024/01/25 09:51:43;;;;;;;4.40;2.10;;;;;;;11.42;43.03;97005.69;5085574;28;20298;-61
2024/01/25 09:54:13;;;;;;;5.03;1.87;;;;;;;11.44;42.13;97008.19;5084513;28;20284;-61
2024/01/25 09:56:41;;;;;;;9.60;2.57;;;;;;;11.37;41.86;96989.50;5084575;28;20202;-61
2024/01/25 09:59:08;;;;;;;3.03;1.50;;;;;;;11.38;41.63;96996.38;5084368;28;20221;-61
2024/01/25 10:01:36;;;;;;;8.50;3.40;;;;;;;11.37;42.56;96962.75;5084450;28;20245;-61
2024/01/25 10:04:07;;;;;;;7.47;3.07;;;;;;;11.12;43.14;96939.81;5084702;28;20191;-61
2024/01/25 10:06:35;;;;;;;3.70;1.80;;;;;;;11.11;42.78;96930.34;5084281;28;20212;-60
2024/01/25 10:09:04;;;;;;;3.90;1.83;;;;;;;11.40;41.61;97012.69;5084960;28;20194;-62
2024/01/25 10:11:35;;;;;;;6.93;1.93;;;;;;;11.24;42.53;96991.03;5084743;28;20664;-63
2024/01/25 10:14:08;;;;;;;5.90;2.50;;;;;;;11.10;42.78;96998.66;5084667;28;20660;-62
2024/01/25 10:16:35;;;;;;;7.50;2.43;;;;;;;11.00;42.22;96984.47;5084375;28;20196;-62
2024/01/25 10:19:06;;;;;;;5.43;2.00;;;;;;;10.99;43.12;96982.78;5084292;28;20237;-61
2024/01/25 10:21:36;;;;;;;4.77;2.30;;;;;;;10.94;43.30;97002.88;5066521;28;20225;-61
2024/01/25 10:24:07;;;;;;;10.93;2.87;;;;;;;10.96;41.79;96985.53;5083816;28;20227;-61
2024/01/25 10:26:35;;;;;;;3.93;1.90;;;;;;;10.82;42.78;96985.31;5084777;28;20269;-61
2024/01/25 10:29:03;;;;;;;7.73;3.53;;;;;;;10.73;43.52;96949.50;5084566;28;20187;-61
2024/01/25 10:31:32;;;;;;;7.27;2.00;;;;;;;10.91;41.87;96977.13;5084392;28;20773;-61
2024/01/25 10:34:00;;;;;;;4.40;1.60;;;;;;;10.90;41.53;96959.06;5084113;28;20656;-61
2024/01/25 10:36:28;;;;;;;8.43;2.07;;;;;;;10.77;42.02;96945.88;5084225;28;20231;-62
2024/01/25 10:38:55;;;;;;;6.37;2.07;;;;;;;10.79;42.03;96951.81;5086065;28;20290;-65
2024/01/25 10:41:25;;;;;;;6.30;2.40;;;;;;;10.75;42.79;96946.84;5069234;28;20236;-60
2024/01/25 10:43:55;;;;;;;6.87;2.37;;;;;;;10.86;42.42;96929.88;5088493;28;20194;-61
2024/01/25 10:46:23;;;;;;;7.57;2.17;;;;;;;10.88;41.38;96940.97;5087947;28;20181;-63
2024/01/25 10:48:51;;;;;;;3.10;1.50;;;;;;;10.80;41.16;96929.34;5087882;28;20214;-61
2024/01/25 10:51:19;;;;;;;8.07;2.70;;;;;;;10.85;42.32;96924.75;5069849;28;20589;-61
2024/01/25 10:53:47;;;;;;;4.67;1.70;;;;;;;10.78;42.90;96919.03;5069241;28;20183;-61
2024/01/25 10:56:14;;;;;;;4.60;1.77;;;;;;;10.72;43.65;96914.16;5069924;28;20228;-63
2024/01/25 10:58:42;;;;;;;4.83;1.80;;;;;;;10.73;43.11;96915.84;5087704;28;20193;-62
2024/01/25 11:01:14;;;;;;;9.37;1.80;;;;;;;10.78;42.55;96916.44;5088318;28;20250;-61
2024/01/25 11:03:48;;;;;;;8.77;3.40;;;;;;;10.97;43.25;96896.50;5087856;28;20199;-63
2024/01/25 11:06:20;;;;;;;9.27;2.57;;;;;;;11.21;42.56;96884.91;5087765;28;20199;-65
2024/01/25 11:08:48;;;;;;;6.50;2.77;;;;;;;11.28;42.16;96891.47;5052985;28;20189;-66
2024/01/25 11:11:16;;;;;;;7.40;2.40;;;;;;;11.13;43.31;96883.59;5087306;28;20201;-65
2024/01/25 11:13:43;;;;;;;8.27;2.47;;;;;;;11.09;42.74;96897.63;5087932;28;20719;-66
2024/01/25 11:16:15;;;;;;;5.67;2.47;;;;;;;10.98;43.82;96893.00;5087166;28;20291;-65
2024/01/25 11:18:53;;;;;;;4.83;2.00;;;;;;;10.91;42.95;96889.03;5087559;28;20180;-66
2024/01/25 11:21:45;;;;;;;5.30;2.17;;;;;;;10.88;44.41;96872.81;5087816;28;20232;-65
2024/01/25 11:24:25;;;;;;;3.73;2.40;;;;;;;10.87;43.79;96908.25;5087181;28;20238;-61
2024/01/25 11:26:54;;;;;;;5.30;1.90;;;;;;;10.85;44.22;96886.75;5088186;28;20285;-64
2024/01/25 11:29:23;;;;;;;5.43;2.60;;;;;;;11.08;44.27;96886.47;5087087;28;20725;-64
2024/01/25 11:31:52;;;;;;;3.60;1.83;;;;;;;11.17;44.10;96906.72;5087557;28;20210;-64
2024/01/25 11:34:20;;;;;;;5.10;1.70;;;;;;;11.22;42.54;96901.28;5087217;28;20596;-62
2024/01/25 11:36:48;;;;;;;8.37;3.27;;;;;;;11.28;43.47;96883.69;5087158;28;20195;-64